Time;durP1;ratioP1;P1;durP2;ratioP2;P2;SDS_P1;SDS_P2;PMS_P1;PMS_P2;Temp;Humidity;BMP_temperature;BMP_pressure;BME280_temperature;BME280_humidity;BME280_pressure;Samples;Min_cycle;Max_cycle;Signal;HPM_P1;HPM_P2
2022/10/11 00:00:52;;;;;;;1.20;0.90;;;;;;;12.33;76.23;100129.53;5092155;27;20375;-72
2022/10/11 00:03:34;;;;;;;1.75;0.80;;;;;;;12.36;76.38;100117.56;5133068;27;20368;-72
2022/10/11 00:06:16;;;;;;;0.70;0.70;;;;;;;12.38;76.20;100120.16;5112491;27;20377;-72
2022/10/11 00:08:57;;;;;;;0.82;0.73;;;;;;;12.37;76.15;100126.97;5092144;27;20350;-72
2022/10/11 00:11:38;;;;;;;0.82;0.82;;;;;;;12.36;76.32;100119.28;5092108;27;20373;-71
2022/10/11 00:14:20;;;;;;;0.50;0.50;;;;;;;12.30;76.47;100129.53;5112369;27;20823;-72
2022/10/11 00:17:01;;;;;;;1.88;1.23;;;;;;;12.29;76.39;100131.22;5133014;27;20718;-72
2022/10/11 00:19:43;;;;;;;0.70;0.70;;;;;;;12.24;76.66;100137.22;5092095;27;20370;-72
2022/10/11 00:22:24;;;;;;;1.60;1.20;;;;;;;12.22;76.84;100119.28;5133012;27;20368;-72
2022/10/11 00:25:08;;;;;;;0.82;0.82;;;;;;;12.17;76.96;100128.69;5091876;27;20371;-73
2022/10/11 00:27:48;;;;;;;2.05;1.48;;;;;;;12.12;77.05;100122.69;5133063;27;20360;-70
2022/10/11 00:30:30;;;;;;;0.63;0.63;;;;;;;12.10;77.12;100120.16;5092146;27;20378;-73
2022/10/11 00:33:11;;;;;;;0.50;0.50;;;;;;;12.15;76.93;100119.28;5092125;27;20366;-72
2022/10/11 00:35:52;;;;;;;1.45;1.13;;;;;;;12.14;77.01;100122.72;5091692;27;20370;-71
2022/10/11 00:38:34;;;;;;;0.50;0.50;;;;;;;12.12;77.35;100124.44;5112473;27;20689;-73
2022/10/11 00:41:16;;;;;;;1.20;1.10;;;;;;;12.14;77.32;100120.16;5092146;27;20374;-72
2022/10/11 00:44:10;;;;;;;0.55;0.55;;;;;;;12.14;77.35;100117.59;5092137;27;20835;-72
2022/10/11 00:46:57;;;;;;;1.60;1.10;;;;;;;12.19;77.19;100113.34;5132306;27;20360;-70
2022/10/11 00:49:42;;;;;;;0.75;0.73;;;;;;;12.11;77.57;100118.47;5092100;27;20379;-72
2022/10/11 00:52:30;;;;;;;0.57;0.57;;;;;;;12.07;77.64;100125.25;5133058;27;20360;-72
2022/10/11 00:55:17;;;;;;;4.15;1.02;;;;;;;12.01;78.01;100124.41;5133017;27;20368;-72
2022/10/11 00:57:59;;;;;;;1.13;1.05;;;;;;;12.01;77.84;100115.03;5092139;27;20371;-72
2022/10/11 01:00:40;;;;;;;0.60;0.60;;;;;;;11.98;78.41;100115.03;5092153;27;20358;-72
2022/10/11 01:03:27;;;;;;;1.02;0.73;;;;;;;11.98;78.53;100109.06;5132964;27;20367;-71
2022/10/11 01:06:08;;;;;;;1.17;1.08;;;;;;;11.91;78.50;100115.88;5112316;27;20373;-73
2022/10/11 01:08:52;;;;;;;0.45;0.45;;;;;;;11.83;78.69;100115.00;5133113;27;20371;-72
2022/10/11 01:11:42;;;;;;;4.25;0.95;;;;;;;11.84;78.87;100126.97;5092064;27;20374;-73
2022/10/11 01:14:43;;;;;;;0.98;0.85;;;;;;;11.82;79.38;100123.56;5133013;27;20372;-72
2022/10/11 01:17:33;;;;;;;1.23;1.13;;;;;;;11.77;79.17;100122.69;5153109;27;20865;-72
2022/10/11 01:20:35;;;;;;;0.40;0.40;;;;;;;11.81;79.56;100121.84;5112512;27;20353;-72
2022/10/11 01:23:49;;;;;;;0.73;0.73;;;;;;;11.76;79.58;100117.56;5092176;27;20374;-72
2022/10/11 01:27:06;;;;;;;0.70;0.70;;;;;;;11.82;79.69;100112.47;5091880;27;20380;-69
2022/10/11 01:29:56;;;;;;;0.60;0.60;;;;;;;11.79;79.96;100099.66;5092094;27;20122;-72
2022/10/11 01:32:47;;;;;;;1.63;1.38;;;;;;;11.80;79.97;100099.69;5092087;27;20374;-72
2022/10/11 01:35:37;;;;;;;0.93;0.90;;;;;;;11.70;79.99;100092.84;5092095;27;20381;-72
2022/10/11 01:38:27;;;;;;;1.25;0.85;;;;;;;11.76;80.19;100092.84;5091547;27;20374;-72
2022/10/11 01:41:13;;;;;;;1.38;1.27;;;;;;;11.77;80.01;100098.81;5092141;27;20709;-72
2022/10/11 01:43:59;;;;;;;2.08;1.58;;;;;;;11.76;80.15;100102.22;5092120;27;20378;-72
2022/10/11 01:46:40;;;;;;;0.38;0.38;;;;;;;11.85;79.78;100097.13;5153731;27;20696;-72
2022/10/11 01:49:22;;;;;;;0.30;0.30;;;;;;;11.77;79.58;100107.34;5112478;27;20373;-72
2022/10/11 01:52:05;;;;;;;1.13;0.70;;;;;;;11.76;79.73;100104.75;5133008;27;20363;-73
2022/10/11 01:55:05;;;;;;;1.58;1.25;;;;;;;11.79;79.73;100103.09;5133010;27;20364;-73
2022/10/11 01:58:08;;;;;;;2.45;1.65;;;;;;;11.81;79.66;100101.38;5091797;27;20362;-73
2022/10/11 02:00:58;;;;;;;1.10;1.02;;;;;;;11.84;79.63;100106.50;5153749;27;20378;-72
2022/10/11 02:03:46;;;;;;;0.45;0.45;;;;;;;11.77;79.55;100104.78;5092153;27;20362;-72
2022/10/11 02:06:34;;;;;;;2.63;1.08;;;;;;;11.80;79.48;100099.69;5092117;27;20362;-72
2022/10/11 02:09:24;;;;;;;1.23;1.10;;;;;;;11.78;79.83;100098.81;5091488;27;20386;-71
2022/10/11 02:12:10;;;;;;;1.00;0.90;;;;;;;11.80;79.92;100094.56;5091580;27;20370;-72
2022/10/11 02:14:56;;;;;;;1.10;1.00;;;;;;;11.85;79.60;100092.84;5133037;27;20356;-71
2022/10/11 02:17:43;;;;;;;1.73;1.30;;;;;;;11.90;79.68;100106.50;5133067;27;20821;-72
2022/10/11 02:20:28;;;;;;;0.90;0.90;;;;;;;11.89;79.38;100104.81;5112493;27;20370;-72
2022/10/11 02:23:13;;;;;;;2.40;1.42;;;;;;;11.89;79.26;100098.81;5092079;27;20709;-72
2022/10/11 02:25:56;;;;;;;1.27;0.98;;;;;;;11.89;79.18;100096.28;5133021;27;20371;-72
2022/10/11 02:28:41;;;;;;;0.32;0.32;;;;;;;11.87;78.92;100096.28;5091931;27;20358;-72
2022/10/11 02:31:25;;;;;;;1.00;0.65;;;;;;;11.92;78.94;100099.69;5112458;27;20376;-72
2022/10/11 02:34:12;;;;;;;0.88;0.80;;;;;;;11.93;78.75;100106.50;5153664;27;20365;-72
2022/10/11 02:37:02;;;;;;;6.50;1.15;;;;;;;11.88;78.56;100092.00;5132994;27;20714;-71
2022/10/11 02:39:48;;;;;;;4.45;1.67;;;;;;;11.89;78.67;100092.00;5132534;27;20845;-73
2022/10/11 02:42:36;;;;;;;1.42;1.33;;;;;;;11.91;78.38;100097.13;5092118;27;20712;-72
2022/10/11 02:45:24;;;;;;;0.80;0.80;;;;;;;11.92;78.30;100086.06;5111956;27;20369;-72
2022/10/11 02:48:08;;;;;;;1.20;1.13;;;;;;;11.93;78.36;100083.47;5133049;27;20375;-72
2022/10/11 02:50:50;;;;;;;0.60;0.60;;;;;;;11.91;78.07;100092.88;5091369;27;20370;-71
2022/10/11 02:53:32;;;;;;;1.85;1.33;;;;;;;11.87;77.81;100090.31;5092070;27;20677;-72
2022/10/11 02:56:14;;;;;;;1.17;1.08;;;;;;;11.93;77.83;100101.38;5112483;27;20368;-72
2022/10/11 02:58:56;;;;;;;0.90;0.90;;;;;;;11.95;77.76;100094.56;5112427;27;20850;-72
2022/10/11 03:01:37;;;;;;;1.80;0.90;;;;;;;11.96;78.01;100101.41;5132994;27;20360;-72
2022/10/11 03:04:19;;;;;;;0.70;0.70;;;;;;;11.98;77.95;100109.91;5092114;27;20401;-72
2022/10/11 03:07:00;;;;;;;1.20;1.10;;;;;;;11.99;77.85;100111.63;5133017;27;20372;-72
2022/10/11 03:09:41;;;;;;;0.60;0.60;;;;;;;11.97;78.14;100107.38;5092038;27;20381;-72
2022/10/11 03:12:23;;;;;;;0.40;0.40;;;;;;;11.98;78.10;100109.91;5133019;27;20363;-73
2022/10/11 03:15:05;;;;;;;0.98;0.73;;;;;;;11.98;77.89;100115.03;5092077;27;20843;-73
2022/10/11 03:17:46;;;;;;;0.95;0.77;;;;;;;12.00;77.89;100103.09;5132951;27;20675;-72
2022/10/11 03:20:27;;;;;;;1.48;1.15;;;;;;;12.02;77.66;100113.34;5132634;27;20364;-69
2022/10/11 03:23:08;;;;;;;1.40;1.17;;;;;;;12.01;77.69;100115.03;5133043;27;20372;-72
2022/10/11 03:25:50;;;;;;;1.05;0.98;;;;;;;12.01;77.79;100120.16;5153672;27;20381;-72
2022/10/11 03:28:31;;;;;;;0.32;0.32;;;;;;;12.03;77.99;100123.56;5092107;27;20370;-73
2022/10/11 03:31:12;;;;;;;0.40;0.40;;;;;;;12.00;77.88;100126.13;5091649;27;20790;-72
2022/10/11 03:33:54;;;;;;;0.73;0.73;;;;;;;12.03;78.19;100128.69;5092086;27;20708;-72
2022/10/11 03:36:35;;;;;;;0.82;0.82;;;;;;;12.06;78.12;100112.47;5092105;27;20358;-73
2022/10/11 03:39:17;;;;;;;0.93;0.88;;;;;;;12.07;78.10;100125.25;5133021;27;20371;-72
2022/10/11 03:41:58;;;;;;;3.03;1.60;;;;;;;12.07;78.11;100119.28;5091525;27;20370;-72
2022/10/11 03:44:40;;;;;;;0.50;0.50;;;;;;;12.03;78.11;100108.22;5092102;27;20370;-73
2022/10/11 03:47:10;;;;;;;0.70;0.70;;;;;;;12.03;78.09;100126.13;5091536;28;20036;-72
2022/10/11 03:49:39;;;;;;;0.43;0.43;;;;;;;12.05;78.26;100119.28;5091345;28;20039;-73
2022/10/11 03:52:11;;;;;;;8.25;1.60;;;;;;;12.06;78.27;100115.91;5090952;28;20080;-72
2022/10/11 03:54:40;;;;;;;1.43;0.73;;;;;;;11.97;78.31;100108.19;5089717;28;20136;-72
2022/10/11 03:57:09;;;;;;;1.02;0.93;;;;;;;11.91;78.56;100115.03;5090899;28;20042;-72
2022/10/11 03:59:39;;;;;;;1.20;0.93;;;;;;;11.89;78.91;100117.59;5090805;28;20068;-72
2022/10/11 04:02:07;;;;;;;1.05;0.95;;;;;;;11.91;79.03;100127.81;5090808;28;20114;-72
2022/10/11 04:04:36;;;;;;;0.70;0.68;;;;;;;11.89;78.98;100130.38;5090778;28;20062;-72
2022/10/11 04:07:05;;;;;;;1.58;1.40;;;;;;;11.91;79.21;100132.94;5090691;28;20050;-73
2022/10/11 04:09:35;;;;;;;2.08;1.23;;;;;;;11.96;79.21;100136.34;5090670;28;20044;-73
2022/10/11 04:12:03;;;;;;;;;;;;;;;11.97;79.21;100138.06;5090989;28;20559;-72
2022/10/11 04:14:32;;;;;;;3.53;1.60;;;;;;;11.99;79.22;100132.09;5090720;28;20026;-70
2022/10/11 04:17:02;;;;;;;0.65;0.65;;;;;;;11.98;78.92;100135.50;5089185;28;20106;-70
2022/10/11 04:19:31;;;;;;;0.82;0.73;;;;;;;11.92;79.03;100119.31;5089410;28;20055;-70
2022/10/11 04:21:59;;;;;;;1.13;0.93;;;;;;;12.02;78.78;100137.19;5090634;28;20040;-72
2022/10/11 04:24:28;;;;;;;0.77;0.68;;;;;;;12.02;78.77;100131.25;5090140;28;20051;-73
2022/10/11 04:26:57;;;;;;;0.60;0.60;;;;;;;12.02;78.51;100134.63;5089255;28;20048;-72
2022/10/11 04:29:25;;;;;;;1.27;1.17;;;;;;;12.01;78.57;100130.41;5089059;28;20036;-72
2022/10/11 04:32:00;;;;;;;1.67;1.58;;;;;;;12.03;78.69;100138.91;5090237;28;20044;-72
2022/10/11 04:34:30;;;;;;;0.80;0.80;;;;;;;12.03;78.50;100138.91;5090211;28;20058;-73
2022/10/11 04:36:59;;;;;;;3.40;1.80;;;;;;;12.06;78.48;100130.38;5090160;28;20051;-69
2022/10/11 04:39:27;;;;;;;3.25;1.67;;;;;;;12.01;78.60;100135.50;5089283;28;20044;-70
2022/10/11 04:41:56;;;;;;;0.65;0.65;;;;;;;12.00;78.67;100138.91;5089026;28;20036;-70
2022/10/11 04:44:24;;;;;;;1.13;0.75;;;;;;;11.91;79.01;100141.47;5089610;28;20048;-73
2022/10/11 04:46:54;;;;;;;0.40;0.40;;;;;;;11.88;79.32;100148.25;5089943;28;20032;-72
2022/10/11 04:49:37;;;;;;;0.40;0.40;;;;;;;11.80;79.58;100145.72;5112385;27;20672;-73
2022/10/11 04:52:18;;;;;;;1.02;0.95;;;;;;;11.78;80.01;100146.56;5092068;27;20378;-72
2022/10/11 04:55:05;;;;;;;0.70;0.70;;;;;;;11.81;80.07;100149.97;5091255;27;20393;-72
2022/10/11 04:57:46;;;;;;;0.63;0.63;;;;;;;11.85;80.06;100149.09;5133019;27;20372;-72
2022/10/11 05:00:27;;;;;;;0.70;0.70;;;;;;;11.70;79.92;100117.56;5132999;27;20363;-73
2022/10/11 05:03:09;;;;;;;1.08;1.00;;;;;;;11.94;79.96;100154.25;5092050;27;20362;-72
2022/10/11 05:05:51;;;;;;;1.08;0.90;;;;;;;11.96;80.03;100155.13;5092035;27;20378;-73
2022/10/11 05:08:33;;;;;;;0.50;0.50;;;;;;;11.97;79.87;100159.34;5092043;27;20363;-72
2022/10/11 05:11:15;;;;;;;0.73;0.65;;;;;;;11.97;79.62;100159.34;5092097;27;20366;-72
2022/10/11 05:13:56;;;;;;;0.75;0.75;;;;;;;11.94;79.85;100159.38;5132821;27;20861;-72
2022/10/11 05:16:37;;;;;;;1.48;1.38;;;;;;;11.91;80.06;100164.47;5092105;27;20362;-72
2022/10/11 05:19:19;;;;;;;1.20;0.90;;;;;;;11.92;79.86;100161.09;5132978;27;20372;-73
2022/10/11 05:22:00;;;;;;;1.23;1.13;;;;;;;11.88;80.01;100164.47;5133011;27;20375;-73
2022/10/11 05:24:42;;;;;;;1.83;1.35;;;;;;;11.80;80.38;100171.28;5091769;27;20378;-72
2022/10/11 05:27:23;;;;;;;0.70;0.70;;;;;;;11.83;80.56;100171.28;5133229;27;20360;-72
2022/10/11 05:30:06;;;;;;;1.33;1.20;;;;;;;11.91;80.38;100171.28;5092087;27;20828;-72
2022/10/11 05:32:47;;;;;;;1.80;1.65;;;;;;;11.91;80.38;100184.09;5092110;27;20374;-72
2022/10/11 05:35:29;;;;;;;3.33;1.40;;;;;;;11.84;80.41;100183.22;5132424;27;20852;-72
2022/10/11 05:38:10;;;;;;;1.40;1.30;;;;;;;11.83;80.58;100180.69;5091857;27;20374;-70
2022/10/11 05:40:52;;;;;;;1.30;1.20;;;;;;;11.88;80.67;100189.19;5092021;27;20374;-72
2022/10/11 05:43:33;;;;;;;2.00;1.77;;;;;;;11.92;80.42;100191.78;5132964;27;20363;-71
2022/10/11 05:46:14;;;;;;;1.30;1.20;;;;;;;11.97;80.30;100184.94;5132487;27;20360;-72
2022/10/11 05:48:56;;;;;;;1.23;1.08;;;;;;;11.96;80.20;100183.25;5133166;27;20375;-72
2022/10/11 05:51:25;;;;;;;0.60;0.60;;;;;;;11.98;80.22;100196.91;5132257;27;20498;-72
2022/10/11 05:53:53;;;;;;;0.75;0.75;;;;;;;12.01;80.61;100186.69;5131029;28;20130;-73
2022/10/11 05:56:25;;;;;;;1.48;1.38;;;;;;;12.05;80.63;100188.38;5131783;28;20031;-72
2022/10/11 05:58:53;;;;;;;0.90;0.90;;;;;;;12.11;80.18;100197.78;5131861;27;20055;-72
2022/10/11 06:01:29;;;;;;;1.30;0.90;;;;;;;12.15;79.37;100193.50;5132150;27;20051;-72
2022/10/11 06:03:59;;;;;;;1.48;1.20;;;;;;;12.12;79.31;100193.53;5130694;28;20051;-72
2022/10/11 06:06:28;;;;;;;1.25;1.15;;;;;;;12.16;79.05;100195.22;5131911;28;20115;-72
2022/10/11 06:08:57;;;;;;;1.33;1.23;;;;;;;12.21;78.76;100203.75;5131502;27;20134;-73
2022/10/11 06:11:27;;;;;;;1.83;1.50;;;;;;;12.24;78.71;100209.72;5131826;27;20127;-72
2022/10/11 06:13:58;;;;;;;1.50;1.40;;;;;;;12.29;78.29;100212.28;5131445;28;20047;-73
2022/10/11 06:16:27;;;;;;;3.20;2.00;;;;;;;12.31;78.10;100213.16;5131558;27;20051;-72
2022/10/11 06:18:56;;;;;;;3.80;1.45;;;;;;;12.29;77.85;100212.28;5130190;28;20036;-72
2022/10/11 06:21:26;;;;;;;0.50;0.50;;;;;;;12.33;77.78;100214.00;5131337;27;20035;-72
2022/10/11 06:23:55;;;;;;;1.60;1.48;;;;;;;12.35;77.56;100212.28;5131581;28;20044;-72
2022/10/11 06:26:29;;;;;;;1.02;1.00;;;;;;;12.38;77.55;100212.31;5131290;27;20476;-72
2022/10/11 06:28:58;;;;;;;1.50;1.40;;;;;;;12.37;77.56;100213.16;5131152;27;20536;-72
2022/10/11 06:31:27;;;;;;;0.88;0.88;;;;;;;12.39;77.55;100214.84;5131404;27;20071;-72
2022/10/11 06:33:55;;;;;;;2.42;1.58;;;;;;;12.44;77.05;100215.72;5131163;27;20484;-72
2022/10/11 06:36:26;;;;;;;1.95;1.63;;;;;;;12.48;76.68;100214.00;5131037;27;20039;-72
2022/10/11 06:38:55;;;;;;;1.00;0.75;;;;;;;12.55;76.74;100215.69;5131585;28;20134;-72
2022/10/11 06:41:27;;;;;;;3.38;1.25;;;;;;;12.59;76.14;100223.41;5131213;27;20085;-72
2022/10/11 06:43:56;;;;;;;0.88;0.85;;;;;;;12.62;76.01;100217.44;5130959;28;20049;-72
2022/10/11 06:46:28;;;;;;;1.20;1.10;;;;;;;12.68;75.73;100219.97;5129766;28;20043;-73
2022/10/11 06:48:57;;;;;;;0.40;0.40;;;;;;;12.70;75.64;100220.81;5130626;28;20043;-73
2022/10/11 06:51:51;;;;;;;2.03;1.50;;;;;;;12.72;75.66;100221.66;5092576;27;20385;-73
2022/10/11 06:54:41;;;;;;;0.70;0.70;;;;;;;12.74;76.06;100225.94;5194581;27;20357;-73
2022/10/11 06:57:36;;;;;;;1.10;1.00;;;;;;;12.73;76.28;100220.81;5194086;27;20378;-73
2022/10/11 07:00:26;;;;;;;12.55;3.08;;;;;;;12.75;76.74;100221.69;5194947;27;20865;-72
2022/10/11 07:03:21;;;;;;;0.57;0.57;;;;;;;12.77;76.79;100230.22;5091864;27;20401;-73
2022/10/11 07:06:21;;;;;;;1.15;1.05;;;;;;;12.78;76.67;100230.22;5091446;27;20727;-73
2022/10/11 07:09:12;;;;;;;1.65;1.35;;;;;;;12.87;77.03;100233.63;5195148;27;20822;-72
2022/10/11 07:12:08;;;;;;;2.35;2.15;;;;;;;12.94;77.36;100235.31;5091905;27;20396;-72
2022/10/11 07:14:58;;;;;;;0.73;0.73;;;;;;;12.99;77.03;100234.44;5195019;27;20398;-73
2022/10/11 07:17:48;;;;;;;3.17;1.67;;;;;;;13.07;77.01;100242.16;5195181;27;20840;-73
2022/10/11 07:20:43;;;;;;;2.25;1.05;;;;;;;13.13;77.38;100237.88;5134421;27;20385;-73
2022/10/11 07:23:37;;;;;;;1.05;0.95;;;;;;;13.24;77.32;100241.28;5090546;27;20385;-72
2022/10/11 07:26:30;;;;;;;3.40;1.45;;;;;;;13.33;77.20;100242.97;5175507;27;20395;-73
2022/10/11 07:29:28;;;;;;;2.58;1.75;;;;;;;13.41;76.92;100244.63;5194000;27;20865;-72
2022/10/11 07:32:19;;;;;;;5.30;1.27;;;;;;;13.52;76.56;100246.31;5194903;27;20877;-73
2022/10/11 07:35:14;;;;;;;0.88;0.80;;;;;;;13.60;75.73;100244.59;5092282;27;20385;-73
2022/10/11 07:38:07;;;;;;;1.05;0.95;;;;;;;13.63;75.03;100250.53;5194601;27;20394;-71
2022/10/11 07:41:05;;;;;;;1.48;1.10;;;;;;;13.65;74.06;100247.97;5091321;27;20862;-74
2022/10/11 07:43:56;;;;;;;1.65;1.27;;;;;;;13.67;73.62;100256.53;5195109;27;20453;-72
2022/10/11 07:46:54;;;;;;;0.50;0.50;;;;;;;13.71;73.04;100259.06;5131007;27;20856;-72
2022/10/11 07:49:44;;;;;;;1.80;1.35;;;;;;;13.76;73.18;100253.91;5184869;27;20423;-73
2022/10/11 07:52:36;;;;;;;0.80;0.80;;;;;;;13.78;72.53;100254.75;5195168;27;20377;-71
2022/10/11 07:55:29;;;;;;;1.55;1.02;;;;;;;13.84;71.72;100259.88;5194472;27;20849;-74
2022/10/11 07:58:25;;;;;;;1.67;1.55;;;;;;;13.90;71.42;100259.81;5085274;27;20398;-71
2022/10/11 08:01:14;;;;;;;1.13;1.02;;;;;;;13.95;71.12;100258.09;5194553;27;20381;-72
2022/10/11 08:04:15;;;;;;;0.75;0.75;;;;;;;14.02;71.04;100249.50;5085411;27;20399;-73
2022/10/11 08:07:15;;;;;;;1.30;1.20;;;;;;;14.09;70.75;100246.03;5091475;27;20759;-72
2022/10/11 08:10:07;;;;;;;0.90;0.82;;;;;;;14.12;70.53;100261.44;5195131;27;20365;-72
2022/10/11 08:12:57;;;;;;;1.08;0.52;;;;;;;14.15;70.08;100256.28;5195374;27;20448;-71
2022/10/11 08:16:09;;;;;;;0.70;0.70;;;;;;;14.19;70.06;100262.22;5117399;27;20136;-73
2022/10/11 08:19:03;;;;;;;0.70;0.63;;;;;;;14.23;69.29;100251.94;5107223;27;20893;-72
2022/10/11 08:21:54;;;;;;;1.10;0.73;;;;;;;14.25;69.08;100247.66;5195101;27;20364;-72
2022/10/11 08:24:44;;;;;;;1.20;0.95;;;;;;;14.27;69.05;100256.22;5194556;27;20506;-72
2022/10/11 08:27:39;;;;;;;2.40;0.77;;;;;;;14.27;69.32;100255.34;5092221;27;20858;-73
2022/10/11 08:30:31;;;;;;;1.17;1.00;;;;;;;14.29;69.12;100251.91;5195089;27;20421;-73
2022/10/11 08:33:26;;;;;;;0.75;0.75;;;;;;;14.31;69.46;100260.47;5092028;27;20393;-74
2022/10/11 08:36:22;;;;;;;1.77;1.00;;;;;;;14.32;69.24;100263.91;5093367;27;20397;-71
2022/10/11 08:39:12;;;;;;;2.45;1.13;;;;;;;14.31;68.83;100265.63;5186570;27;20946;-71
2022/10/11 08:42:06;;;;;;;0.95;0.90;;;;;;;14.35;68.75;100263.91;5194275;27;20381;-71
2022/10/11 08:45:01;;;;;;;1.45;1.35;;;;;;;14.39;69.11;100265.56;5194968;27;20384;-71
2022/10/11 08:48:17;;;;;;;0.60;0.60;;;;;;;14.45;68.99;100265.50;5091589;27;20909;-71
2022/10/11 08:51:21;;;;;;;1.15;0.98;;;;;;;14.46;68.65;100275.78;5090457;27;20393;-71
2022/10/11 08:54:21;;;;;;;2.45;1.25;;;;;;;14.49;68.20;100280.88;5092300;27;20377;-73
2022/10/11 08:57:24;;;;;;;1.48;0.65;;;;;;;14.51;68.23;100280.91;5092305;27;20409;-72
2022/10/11 09:00:33;;;;;;;0.82;0.80;;;;;;;14.60;68.01;100285.97;5092551;27;20389;-72
2022/10/11 09:03:11;;;;;;;0.50;0.50;;;;;;;14.63;68.44;100281.66;5090993;28;20041;-72
2022/10/11 09:05:52;;;;;;;0.70;0.70;;;;;;;14.66;68.87;100284.19;5091415;28;20052;-72
2022/10/11 09:08:30;;;;;;;7.43;2.03;;;;;;;14.70;69.42;100288.47;5090280;28;20059;-71
2022/10/11 09:11:03;;;;;;;2.80;2.47;;;;;;;14.76;69.51;100290.13;5091239;28;20107;-72
2022/10/11 09:13:51;;;;;;;0.55;0.55;;;;;;;14.76;70.29;100293.53;5091128;28;20052;-72
2022/10/11 09:16:29;;;;;;;0.68;0.68;;;;;;;14.76;70.85;100288.41;5089827;28;20436;-73
2022/10/11 09:19:30;;;;;;;0.57;0.57;;;;;;;14.72;70.80;100276.44;5090609;28;20544;-72
2022/10/11 09:22:07;;;;;;;0.93;0.80;;;;;;;14.90;71.53;100290.03;5090936;28;20378;-71
2022/10/11 09:25:03;;;;;;;1.80;1.65;;;;;;;14.96;71.53;100289.97;5090856;28;20394;-72
2022/10/11 09:27:36;;;;;;;1.88;1.73;;;;;;;14.95;71.91;100267.72;5090456;28;20048;-72
2022/10/11 09:30:25;;;;;;;0.80;0.80;;;;;;;15.07;71.88;100273.56;5090862;28;20093;-72
2022/10/11 09:33:10;;;;;;;2.72;1.48;;;;;;;15.18;71.27;100281.19;5090400;28;20504;-69
2022/10/11 09:35:42;;;;;;;1.30;1.02;;;;;;;15.19;70.64;100288.00;5090789;28;20397;-70
2022/10/11 09:38:21;;;;;;;1.00;0.63;;;;;;;15.24;70.02;100288.81;5090343;28;20128;-72
2022/10/11 09:41:06;;;;;;;0.85;0.85;;;;;;;15.31;69.78;100285.31;5088726;28;20060;-72
2022/10/11 09:43:35;;;;;;;0.47;0.47;;;;;;;15.28;69.23;100288.78;5077428;28;20052;-73
2022/10/11 09:46:04;;;;;;;0.57;0.57;;;;;;;15.33;68.47;100288.75;5089084;28;20032;-70
2022/10/11 09:48:42;;;;;;;0.90;0.80;;;;;;;15.33;68.00;100291.34;5090141;28;20059;-69
2022/10/11 09:51:14;;;;;;;0.77;0.70;;;;;;;15.34;67.81;100287.88;5089120;28;20044;-69
2022/10/11 09:53:52;;;;;;;1.63;0.98;;;;;;;15.35;67.35;100290.44;5083146;28;20047;-70
2022/10/11 09:56:21;;;;;;;0.60;0.60;;;;;;;15.41;67.44;100284.38;5072260;28;20064;-71
2022/10/11 09:59:06;;;;;;;0.77;0.65;;;;;;;15.39;67.15;100274.09;5074073;28;20048;-72
2022/10/11 10:01:37;;;;;;;0.77;0.77;;;;;;;15.54;66.93;100285.97;5074512;28;20479;-70
2022/10/11 10:04:12;;;;;;;1.02;0.82;;;;;;;15.56;66.73;100289.38;5077102;28;20037;-72
2022/10/11 10:06:41;;;;;;;2.38;1.27;;;;;;;15.56;66.76;100279.09;5077216;28;20045;-72
2022/10/11 10:09:25;;;;;;;0.73;0.73;;;;;;;15.61;66.87;100286.75;5069224;28;20055;-74
2022/10/11 10:11:54;;;;;;;21.92;1.50;;;;;;;15.63;66.83;100282.44;5056074;28;20063;-74
2022/10/11 10:14:27;;;;;;;0.57;0.57;;;;;;;15.66;66.67;100285.84;5068164;28;20040;-73
2022/10/11 10:17:04;;;;;;;0.70;0.70;;;;;;;15.66;66.69;100285.84;5068986;28;20052;-73
2022/10/11 10:19:40;;;;;;;2.05;0.82;;;;;;;15.62;66.26;100278.19;5073553;28;20398;-74
2022/10/11 10:22:18;;;;;;;;;;;;;;;15.67;66.51;100287.53;5076442;28;20044;-73
2022/10/11 10:24:49;;;;;;;1.48;0.90;;;;;;;15.62;66.74;100268.72;5076294;28;20332;-74
2022/10/11 10:27:23;;;;;;;0.75;0.73;;;;;;;15.71;66.84;100289.22;5076035;28;20056;-73
2022/10/11 10:30:13;;;;;;;0.70;0.70;;;;;;;15.74;67.09;100291.72;5075756;28;20044;-74
2022/10/11 10:32:52;;;;;;;0.60;0.57;;;;;;;15.77;67.02;100283.13;5066771;28;20048;-71
2022/10/11 10:35:31;;;;;;;0.77;0.77;;;;;;;15.82;67.33;100286.50;5064990;28;20041;-72
2022/10/11 10:38:12;;;;;;;1.20;0.88;;;;;;;15.87;67.34;100289.88;5075905;28;20068;-73
2022/10/11 10:40:45;;;;;;;2.28;1.80;;;;;;;15.93;67.37;100284.66;5075768;28;20037;-73
2022/10/11 10:43:16;;;;;;;0.50;0.50;;;;;;;15.88;67.02;100271.00;5074621;28;20053;-73
2022/10/11 10:46:09;;;;;;;0.77;0.77;;;;;;;16.05;66.81;100287.91;5075705;28;20043;-69
2022/10/11 10:48:49;;;;;;;1.42;1.02;;;;;;;16.19;66.96;100286.88;5075979;28;20060;-72
2022/10/11 10:51:49;;;;;;;0.70;0.70;;;;;;;16.42;66.67;100284.81;5055347;28;20122;-73
2022/10/11 10:54:32;;;;;;;1.95;1.77;;;;;;;16.44;66.66;100298.53;5069890;28;20110;-72
2022/10/11 10:57:04;;;;;;;1.15;0.90;;;;;;;16.47;66.56;100293.34;5075803;28;20052;-73
2022/10/11 10:59:54;;;;;;;1.17;1.08;;;;;;;16.47;66.78;100286.47;5066201;28;20049;-72
2022/10/11 11:02:29;;;;;;;1.40;1.13;;;;;;;16.55;66.97;100288.97;5055876;28;20052;-71
2022/10/11 11:05:20;;;;;;;;;;;;;;;16.57;66.34;100284.63;5054596;28;20448;-70
2022/10/11 11:07:57;;;;;;;0.90;0.88;;;;;;;16.63;66.36;100284.53;5055146;28;19924;-73
2022/10/11 11:10:34;;;;;;;2.17;1.55;;;;;;;16.67;66.48;100288.78;5055200;28;20047;-72
2022/10/11 11:13:19;;;;;;;1.33;0.93;;;;;;;16.72;65.98;100284.41;5067686;28;20048;-70
2022/10/11 11:15:55;;;;;;;1.73;1.60;;;;;;;16.77;66.31;100277.44;5073596;28;20053;-72
2022/10/11 11:18:34;;;;;;;1.27;1.17;;;;;;;16.91;66.28;100269.47;5073288;28;20037;-71
2022/10/11 11:21:27;;;;;;;0.90;0.90;;;;;;;17.07;65.96;100274.34;5072075;28;20049;-74
2022/10/11 11:24:07;;;;;;;1.83;1.40;;;;;;;17.39;65.69;100276.34;5073167;28;20394;-72
2022/10/11 11:26:44;;;;;;;1.33;0.90;;;;;;;17.46;65.34;100222.88;5074863;28;20059;-72
2022/10/11 11:29:27;;;;;;;1.25;1.15;;;;;;;17.88;64.70;100265.91;5074582;28;20413;-72
2022/10/11 11:32:09;;;;;;;0.98;0.90;;;;;;;18.06;64.00;100268.13;5058887;28;20167;-71
2022/10/11 11:34:42;;;;;;;1.33;1.23;;;;;;;18.19;63.13;100269.53;5055080;28;20508;-72
2022/10/11 11:37:21;;;;;;;0.73;0.73;;;;;;;18.19;63.52;100261.78;5054719;28;20053;-71
2022/10/11 11:39:57;;;;;;;1.60;1.50;;;;;;;18.16;63.28;100261.00;5054873;28;20067;-73
2022/10/11 11:42:34;;;;;;;2.08;1.15;;;;;;;18.21;63.29;100254.84;5059683;28;20428;-73
2022/10/11 11:45:13;;;;;;;1.70;1.23;;;;;;;18.37;63.06;100257.94;5070645;28;20045;-73
2022/10/11 11:47:47;;;;;;;1.00;0.90;;;;;;;18.49;62.42;100252.50;5069538;28;20040;-72
2022/10/11 11:50:21;;;;;;;3.22;2.45;;;;;;;18.52;62.20;100261.03;5054705;28;20133;-70
2022/10/11 11:52:54;;;;;;;2.15;1.77;;;;;;;18.18;61.73;100185.16;5054445;28;20497;-72
2022/10/11 11:55:31;;;;;;;6.35;1.58;;;;;;;18.61;61.71;100247.91;5054302;28;20045;-72
2022/10/11 11:58:12;;;;;;;2.55;1.42;;;;;;;18.74;61.56;100244.09;5054188;28;20498;-73
2022/10/11 12:00:53;;;;;;;0.82;0.82;;;;;;;18.92;61.09;100247.13;5058859;28;20060;-72
2022/10/11 12:03:25;;;;;;;4.45;1.95;;;;;;;18.87;61.04;100243.81;5071796;28;20131;-72
2022/10/11 12:06:15;;;;;;;2.25;1.38;;;;;;;18.98;60.93;100247.81;5074407;28;20071;-73
2022/10/11 12:08:47;;;;;;;1.50;1.38;;;;;;;19.08;60.66;100235.47;5073986;28;20048;-73
2022/10/11 12:11:24;;;;;;;1.70;1.05;;;;;;;19.23;59.75;100233.34;5074374;28;20040;-72
2022/10/11 12:13:54;;;;;;;11.13;2.28;;;;;;;19.34;59.36;100233.03;5073901;28;20059;-72
2022/10/11 12:16:23;;;;;;;1.45;0.88;;;;;;;19.43;58.72;100229.41;5074371;28;20509;-70
2022/10/11 12:19:00;;;;;;;1.30;1.17;;;;;;;19.56;58.70;100229.00;5073692;28;20509;-73
2022/10/11 12:21:32;;;;;;;1.55;1.33;;;;;;;19.50;58.20;100231.78;5073668;28;20060;-72
2022/10/11 12:24:11;;;;;;;2.05;0.90;;;;;;;19.56;58.17;100226.41;5073848;28;20135;-72
2022/10/11 12:26:43;;;;;;;2.35;1.48;;;;;;;19.69;57.82;100232.94;5074021;28;20525;-73
2022/10/11 12:29:42;;;;;;;0.88;0.88;;;;;;;19.78;57.92;100231.81;5074893;28;20408;-73
2022/10/11 12:32:52;;;;;;;1.58;1.48;;;;;;;19.82;57.42;100234.28;5073759;28;20057;-73
2022/10/11 12:35:31;;;;;;;;;;;;;;;19.96;57.40;100232.13;5073887;28;20043;-73